createdAt,value
2019-02-09T00:00:37.730Z,8.13
2019-02-09T00:03:07.682Z,9.38
2019-02-09T00:05:35.929Z,6.95
2019-02-09T00:08:06.327Z,9.50
2019-02-09T00:10:34.541Z,8.88
2019-02-09T00:13:02.780Z,6.70
2019-02-09T00:15:31.209Z,8.00
2019-02-09T00:17:59.456Z,8.83
2019-02-09T00:20:27.731Z,8.68
2019-02-09T00:23:15.516Z,7.78
2019-02-09T00:25:43.933Z,6.35
2019-02-09T00:28:12.368Z,5.78
2019-02-09T00:30:42.396Z,7.17
2019-02-09T00:33:11.256Z,12.05
2019-02-09T00:35:39.495Z,5.37
2019-02-09T00:38:07.800Z,8.38
2019-02-09T00:40:36.077Z,7.72
2019-02-09T00:43:04.326Z,8.03
2019-02-09T00:45:32.637Z,7.60
2019-02-09T00:48:00.925Z,7.15
2019-02-09T00:50:29.207Z,5.17
2019-02-09T00:52:57.477Z,5.92
2019-02-09T00:55:27.995Z,10.75
2019-02-09T00:57:56.280Z,7.95
2019-02-09T01:00:32.911Z,7.53
2019-02-09T01:03:01.271Z,7.10
2019-02-09T01:05:34.781Z,5.87
2019-02-09T01:08:03.087Z,6.80
2019-02-09T01:10:31.889Z,7.20
2019-02-09T01:13:00.995Z,5.10
2019-02-09T01:15:29.277Z,8.45
2019-02-09T01:17:57.526Z,5.65
2019-02-09T01:20:27.930Z,5.20
2019-02-09T01:22:57.186Z,6.55
2019-02-09T01:25:25.454Z,6.85
2019-02-09T01:27:53.709Z,7.30
2019-02-09T01:30:25.249Z,7.60
2019-02-09T01:32:53.512Z,8.88
2019-02-09T01:35:21.811Z,7.65
2019-02-09T01:37:51.117Z,8.68
2019-02-09T01:40:27.289Z,7.42
2019-02-09T01:42:58.226Z,5.42
2019-02-09T01:45:32.145Z,8.90
2019-02-09T01:48:00.391Z,7.90
2019-02-09T01:50:30.359Z,6.25
2019-02-09T01:52:58.680Z,4.42
2019-02-09T01:55:28.120Z,6.42
2019-02-09T01:57:56.650Z,9.25
2019-02-09T02:00:27.147Z,7.03
2019-02-09T02:02:55.399Z,8.70
2019-02-09T02:05:24.869Z,12.03
2019-02-09T02:07:53.346Z,10.93
2019-02-09T02:10:24.448Z,9.33
2019-02-09T02:12:52.690Z,8.20
2019-02-09T02:15:21.054Z,8.83
2019-02-09T02:17:49.271Z,8.90
2019-02-09T02:20:22.858Z,8.15
2019-02-09T02:22:51.153Z,8.45
2019-02-09T02:25:19.396Z,7.12
2019-02-09T02:27:47.682Z,9.13
2019-02-09T02:30:22.652Z,6.10
2019-02-09T02:35:16.625Z,10.28
2019-02-09T02:37:44.970Z,9.35
2019-02-09T02:40:15.699Z,7.60
2019-02-09T02:42:43.969Z,6.50
2019-02-09T02:45:16.908Z,8.85
2019-02-09T02:47:45.214Z,7.75
2019-02-09T02:50:20.994Z,9.48
2019-02-09T02:52:49.239Z,7.35
2019-02-09T02:55:38.950Z,14.25
2019-02-09T02:58:07.199Z,5.90
2019-02-09T03:00:35.546Z,7.22
2019-02-09T03:03:03.922Z,8.73
2019-02-09T03:05:32.265Z,6.35
2019-02-09T03:08:00.573Z,6.92
2019-02-09T03:10:29.525Z,9.00
2019-02-09T03:12:57.806Z,11.05
2019-02-09T03:15:31.133Z,6.17
2019-02-09T03:17:59.476Z,9.63
2019-02-09T03:20:27.762Z,7.78
2019-02-09T03:22:56.058Z,8.53
2019-02-09T03:25:27.058Z,6.83
2019-02-09T03:27:55.312Z,12.03
2019-02-09T03:30:24.335Z,7.55
2019-02-09T03:32:52.667Z,6.92
2019-02-09T03:35:20.924Z,9.93
2019-02-09T03:37:49.178Z,9.50
2019-02-09T03:40:19.961Z,6.65
2019-02-09T03:42:48.262Z,7.95
2019-02-09T03:45:18.968Z,7.40
2019-02-09T03:47:47.282Z,9.90
2019-02-09T03:50:18.647Z,5.72
2019-02-09T03:52:46.986Z,7.70
2019-02-09T03:55:15.296Z,9.70
2019-02-09T03:57:43.603Z,4.05
2019-02-09T04:00:14.855Z,8.08
2019-02-09T04:02:43.110Z,4.67
2019-02-09T04:05:12.420Z,5.65
2019-02-09T04:07:40.679Z,5.83
2019-02-09T04:10:37.138Z,6.15
2019-02-09T04:13:05.411Z,7.78
2019-02-09T04:15:33.982Z,4.85
2019-02-09T04:18:02.255Z,4.17
2019-02-09T04:20:30.545Z,7.08
2019-02-09T04:22:58.831Z,4.92
2019-02-09T04:25:27.122Z,9.13
2019-02-09T04:27:55.359Z,6.70
2019-02-09T04:30:26.019Z,6.62
2019-02-09T04:32:54.369Z,10.08
2019-02-09T04:35:22.690Z,8.08
2019-02-09T04:37:50.934Z,6.15
2019-02-09T04:40:24.108Z,5.30
2019-02-09T04:42:52.394Z,6.80
2019-02-09T04:45:20.659Z,5.87
2019-02-09T04:47:48.954Z,7.15
2019-02-09T04:50:18.148Z,6.22
2019-02-09T04:52:46.400Z,7.83
2019-02-09T04:55:19.886Z,8.50
2019-02-09T04:57:48.193Z,7.92
2019-02-09T05:00:21.486Z,6.40
2019-02-09T05:02:49.864Z,7.28
2019-02-09T05:05:18.166Z,8.38
2019-02-09T05:07:46.458Z,10.40
2019-02-09T05:10:38.416Z,7.75
2019-02-09T05:13:06.796Z,9.08
2019-02-09T05:15:35.119Z,7.83
2019-02-09T05:18:03.519Z,6.00
2019-02-09T05:20:31.794Z,11.45
2019-02-09T05:23:00.038Z,8.83
2019-02-09T05:25:28.319Z,7.78
2019-02-09T05:27:56.627Z,8.10
2019-02-09T05:30:27.549Z,8.95
2019-02-09T05:32:57.017Z,10.72
2019-02-09T05:35:26.818Z,9.08
2019-02-09T05:37:55.149Z,9.20
2019-02-09T05:40:25.095Z,9.35
2019-02-09T05:42:53.519Z,13.35
2019-02-09T05:45:27.034Z,12.30
2019-02-09T05:47:55.329Z,10.20
2019-02-09T05:50:23.590Z,9.10
2019-02-09T05:52:51.849Z,7.87
2019-02-09T05:55:20.085Z,8.48
2019-02-09T05:57:48.343Z,11.12
2019-02-09T06:00:30.005Z,10.15
2019-02-09T06:02:58.279Z,10.15
2019-02-09T06:05:26.538Z,8.68
2019-02-09T06:07:54.861Z,9.23
2019-02-09T06:10:23.089Z,8.90
2019-02-09T06:12:51.377Z,6.85
2019-02-09T06:15:21.952Z,6.05
2019-02-09T06:17:50.208Z,9.63
2019-02-09T06:20:20.622Z,6.37
2019-02-09T06:22:48.926Z,6.53
2019-02-09T06:25:17.199Z,8.53
2019-02-09T06:27:45.499Z,6.20
2019-02-09T06:30:19.255Z,6.92
2019-02-09T06:32:47.551Z,7.62
2019-02-09T06:35:15.853Z,8.33
2019-02-09T06:37:44.130Z,6.20
2019-02-09T06:40:19.665Z,11.78
2019-02-09T06:42:47.915Z,6.22
2019-02-09T06:45:18.306Z,5.30
2019-02-09T06:47:46.566Z,8.10
2019-02-09T06:50:24.845Z,10.58
2019-02-09T06:52:53.121Z,6.50
2019-02-09T06:55:21.377Z,6.95
2019-02-09T06:57:49.651Z,6.65
2019-02-09T07:00:20.527Z,7.90
2019-02-09T07:02:48.747Z,9.13
2019-02-09T07:05:22.671Z,3.87
2019-02-09T07:07:51.003Z,6.85
2019-02-09T07:10:22.541Z,6.70
2019-02-09T07:12:50.792Z,5.85
2019-02-09T07:15:31.209Z,5.17
2019-02-09T07:18:01.561Z,2.95
2019-02-09T07:20:29.851Z,3.65
2019-02-09T07:22:58.086Z,5.12
2019-02-09T07:25:26.326Z,4.70
2019-02-09T07:27:54.630Z,8.10
2019-02-09T07:30:28.816Z,5.03
2019-02-09T07:32:57.773Z,6.22
2019-02-09T07:35:27.275Z,4.83
2019-02-09T07:37:55.564Z,4.60
2019-02-09T07:40:24.883Z,6.35
2019-02-09T07:42:53.145Z,6.15
2019-02-09T07:45:34.848Z,4.67
2019-02-09T07:48:03.107Z,4.35
2019-02-09T07:50:31.390Z,4.08
2019-02-09T07:52:59.704Z,8.68
2019-02-09T07:55:28.027Z,6.47
2019-02-09T07:57:56.443Z,5.58
2019-02-09T08:00:26.456Z,9.13
2019-02-09T08:02:54.722Z,11.08
2019-02-09T08:05:23.711Z,9.93
2019-02-09T08:07:52.006Z,11.55
2019-02-09T08:10:25.904Z,10.13
2019-02-09T08:12:54.201Z,10.30
2019-02-09T08:15:25.782Z,11.97
2019-02-09T08:17:54.157Z,14.43
2019-02-09T08:20:27.054Z,10.48
2019-02-09T08:22:56.447Z,8.38
2019-02-09T08:25:26.869Z,14.87
2019-02-09T08:27:55.209Z,13.15
2019-02-09T08:30:26.264Z,14.45
2019-02-09T08:32:54.713Z,12.80
2019-02-09T08:35:22.950Z,13.58
2019-02-09T08:37:51.228Z,10.78
2019-02-09T08:40:19.494Z,8.28
2019-02-09T08:42:47.843Z,14.80
2019-02-09T08:45:20.661Z,16.30
2019-02-09T08:47:49.033Z,9.85
2019-02-09T08:50:23.009Z,10.78
2019-02-09T08:53:03.936Z,10.48
2019-02-09T08:55:32.342Z,10.90
2019-02-09T08:58:00.650Z,15.13
2019-02-09T09:00:35.002Z,10.10
2019-02-09T09:03:03.282Z,11.40
2019-02-09T09:05:31.640Z,12.85
2019-02-09T09:07:59.910Z,10.75
2019-02-09T09:10:29.605Z,14.75
2019-02-09T09:13:00.254Z,8.45
2019-02-09T09:15:31.804Z,8.78
2019-02-09T09:18:00.038Z,9.15
2019-02-09T09:20:33.499Z,8.05
2019-02-09T09:23:01.834Z,11.05
2019-02-09T09:25:30.241Z,17.37
2019-02-09T09:27:58.545Z,10.82
2019-02-09T09:30:29.307Z,15.35
2019-02-09T09:32:57.778Z,6.50
2019-02-09T09:35:26.026Z,11.25
2019-02-09T09:37:55.251Z,11.33
2019-02-09T09:40:32.436Z,13.58
2019-02-09T09:43:00.904Z,15.60
2019-02-09T09:45:34.093Z,15.32
2019-02-09T09:48:02.319Z,8.68
2019-02-09T09:50:30.676Z,10.05
2019-02-09T09:52:58.951Z,13.80
2019-02-09T09:55:27.233Z,14.20
2019-02-09T09:57:55.529Z,12.75
2019-02-09T10:00:27.032Z,7.08
2019-02-09T10:02:55.434Z,13.45
2019-02-09T10:05:23.750Z,12.10
2019-02-09T10:07:52.016Z,8.55
2019-02-09T10:10:21.318Z,15.25
2019-02-09T10:12:49.854Z,11.78
2019-02-09T10:15:21.377Z,12.68
2019-02-09T10:17:54.302Z,8.73
2019-02-09T10:20:24.346Z,10.40
2019-02-09T10:22:52.616Z,8.08
2019-02-09T10:25:20.862Z,10.03
2019-02-09T10:27:50.154Z,10.38
2019-02-09T10:30:21.194Z,8.00
2019-02-09T10:32:49.513Z,13.38
2019-02-09T10:35:20.749Z,7.62
2019-02-09T10:37:48.986Z,7.62
2019-02-09T10:40:26.426Z,8.55
2019-02-09T10:42:54.676Z,7.75
2019-02-09T10:45:27.604Z,10.35
2019-02-09T10:47:55.839Z,7.83
2019-02-09T10:50:26.826Z,8.95
2019-02-09T10:52:55.119Z,9.93
2019-02-09T10:55:23.417Z,9.43
2019-02-09T10:57:51.701Z,10.03
2019-02-09T11:00:22.974Z,11.45
2019-02-09T11:02:52.315Z,13.83
2019-02-09T11:05:20.730Z,12.18
2019-02-09T11:07:49.090Z,12.00
2019-02-09T11:10:20.000Z,10.30
2019-02-09T11:12:48.310Z,9.85
2019-02-09T11:15:18.696Z,10.95
2019-02-09T11:17:47.002Z,15.78
2019-02-09T11:20:20.011Z,9.58
2019-02-09T11:22:48.295Z,11.68
2019-02-09T11:25:21.843Z,10.60
2019-02-09T11:27:50.118Z,11.30
2019-02-09T11:30:26.316Z,9.85
2019-02-09T11:33:01.614Z,10.32
2019-02-09T11:35:24.631Z,9.68
2019-02-09T11:37:52.870Z,9.78
2019-02-09T11:40:31.482Z,7.10
2019-02-09T11:43:01.584Z,4.42
2019-02-09T11:45:31.042Z,4.30
2019-02-09T11:47:59.331Z,5.92
2019-02-09T11:50:27.570Z,5.55
2019-02-09T11:52:55.873Z,6.12
2019-02-09T11:55:31.538Z,6.92
2019-02-09T11:57:59.807Z,4.53
2019-02-09T12:00:53.342Z,5.22
2019-02-09T12:03:21.572Z,3.10
2019-02-09T12:05:49.998Z,3.62
2019-02-09T12:08:18.349Z,7.95
2019-02-09T12:10:46.586Z,8.95
2019-02-09T12:13:14.968Z,6.28
2019-02-09T12:15:43.374Z,5.50
2019-02-09T12:18:15.745Z,6.90
2019-02-09T12:20:44.152Z,7.22
2019-02-09T12:23:12.423Z,8.00
2019-02-09T12:25:40.710Z,8.95
2019-02-09T12:28:11.687Z,7.45
2019-02-09T12:30:40.573Z,8.50
2019-02-09T12:33:10.082Z,7.30
2019-02-09T12:35:38.447Z,7.60
2019-02-09T12:38:08.265Z,8.05
2019-02-09T12:40:36.705Z,10.70
2019-02-09T12:43:05.026Z,11.30
2019-02-09T12:45:35.554Z,10.68
2019-02-09T12:48:04.515Z,11.90
2019-02-09T12:50:32.816Z,9.40
2019-02-09T12:53:01.149Z,13.90
2019-02-09T12:55:29.394Z,12.58
2019-02-09T12:57:57.652Z,16.20
2019-02-09T13:00:34.689Z,12.95
2019-02-09T13:03:07.977Z,9.08
2019-02-09T13:05:36.257Z,11.35
2019-02-09T13:08:04.559Z,8.83
2019-02-09T13:10:32.880Z,10.15
2019-02-09T13:13:01.214Z,7.03
2019-02-09T13:15:40.427Z,10.95
2019-02-09T13:18:08.696Z,8.20
2019-02-09T13:20:36.951Z,9.78
2019-02-09T13:23:06.907Z,10.65
2019-02-09T13:25:35.147Z,11.12
2019-02-09T13:28:03.705Z,9.63
2019-02-09T13:30:34.246Z,11.28
2019-02-09T13:33:02.521Z,9.78
2019-02-09T13:35:30.747Z,9.48
2019-02-09T13:37:59.020Z,10.10
2019-02-09T13:40:28.108Z,10.03
2019-02-09T13:42:57.460Z,9.85
2019-02-09T13:45:31.242Z,7.20
2019-02-09T13:47:59.492Z,7.47
2019-02-09T13:50:29.276Z,9.65
2019-02-09T13:52:57.542Z,6.45
2019-02-09T13:55:25.819Z,8.68
2019-02-09T13:57:54.039Z,12.30
2019-02-09T14:00:24.043Z,7.37
2019-02-09T14:02:52.495Z,9.95
2019-02-09T14:05:20.756Z,6.12
2019-02-09T14:07:48.969Z,10.43
2019-02-09T14:10:19.213Z,7.87
2019-02-09T14:12:49.167Z,14.58
2019-02-09T14:15:20.333Z,12.50
2019-02-09T14:17:48.536Z,11.85
2019-02-09T14:20:16.795Z,10.65
2019-02-09T14:22:45.023Z,11.50
2019-02-09T14:25:20.389Z,9.18
2019-02-09T14:30:49.214Z,7.33
2019-02-09T14:33:17.443Z,6.65
2019-02-09T14:35:45.697Z,6.70
2019-02-09T14:38:13.923Z,6.97
2019-02-09T14:40:42.181Z,4.40
2019-02-09T14:43:29.884Z,7.20
2019-02-09T14:45:58.206Z,9.30
2019-02-09T14:48:26.495Z,9.60
2019-02-09T14:50:54.782Z,6.47
2019-02-09T14:53:23.031Z,10.20
2019-02-09T14:55:51.354Z,6.87
2019-02-09T14:58:19.604Z,6.62
2019-02-09T15:00:53.606Z,4.90
2019-02-09T15:03:27.294Z,7.35
2019-02-09T15:05:51.886Z,9.15
2019-02-09T15:08:20.166Z,6.10
2019-02-09T15:10:48.446Z,7.60
2019-02-09T15:13:16.755Z,8.40
2019-02-09T15:16:03.388Z,7.58
2019-02-09T15:18:31.697Z,9.15
2019-02-09T15:21:06.218Z,9.78
2019-02-09T15:23:34.669Z,9.08
2019-02-09T15:26:02.989Z,8.50
2019-02-09T15:28:31.260Z,6.12
2019-02-09T15:30:59.611Z,13.15
2019-02-09T15:33:27.844Z,7.20
2019-02-09T15:35:56.186Z,9.25
2019-02-09T15:38:24.474Z,10.50
2019-02-09T15:40:52.774Z,7.42
2019-02-09T15:43:21.044Z,8.00
2019-02-09T15:45:49.297Z,9.55
2019-02-09T15:48:17.539Z,9.65
2019-02-09T15:51:05.238Z,7.80
2019-02-09T15:53:33.559Z,11.18
2019-02-09T15:56:02.158Z,6.80
2019-02-09T15:58:30.490Z,7.20
2019-02-09T16:00:58.817Z,11.33
2019-02-09T16:03:27.223Z,11.50
2019-02-09T16:05:55.587Z,9.58
2019-02-09T16:08:24.243Z,11.63
2019-02-09T16:10:52.629Z,10.40
2019-02-09T16:13:20.933Z,10.50
2019-02-09T16:15:49.194Z,11.57
2019-02-09T16:18:17.534Z,10.13
2019-02-09T16:20:45.777Z,18.05
2019-02-09T16:23:14.327Z,13.13
2019-02-09T16:25:42.761Z,11.88
2019-02-09T16:28:30.620Z,15.93
2019-02-09T16:30:58.880Z,13.88
2019-02-09T16:33:27.327Z,11.70
2019-02-09T16:35:55.822Z,16.20
2019-02-09T16:38:24.100Z,14.95
2019-02-09T16:40:52.601Z,15.18
2019-02-09T16:43:21.132Z,17.27
2019-02-09T16:45:49.445Z,12.13
2019-02-09T16:48:17.746Z,15.08
2019-02-09T16:50:46.114Z,14.85
2019-02-09T16:53:14.444Z,8.65
2019-02-09T16:55:44.496Z,8.78
2019-02-09T16:58:12.847Z,11.95
2019-02-09T17:00:43.576Z,12.93
2019-02-09T17:03:12.806Z,11.65
2019-02-09T17:05:43.049Z,7.50
2019-02-09T17:08:11.297Z,10.15
2019-02-09T17:10:39.587Z,7.62
2019-02-09T17:13:08.378Z,11.85
2019-02-09T17:15:36.711Z,11.25
2019-02-09T17:18:06.291Z,16.45
2019-02-09T17:20:34.551Z,12.60
2019-02-09T17:23:02.941Z,12.70
2019-02-09T17:25:31.191Z,14.40
2019-02-09T17:27:59.595Z,11.33
2019-02-09T17:30:31.139Z,11.85
2019-02-09T17:33:00.678Z,13.10
2019-02-09T17:35:35.642Z,18.80
2019-02-09T17:38:04.047Z,13.60
2019-02-09T17:40:46.968Z,13.60
2019-02-09T17:43:15.387Z,12.55
2019-02-09T17:45:46.426Z,19.32
2019-02-09T17:48:14.691Z,13.30
2019-02-09T17:50:42.982Z,18.15
2019-02-09T17:53:11.282Z,11.22
2019-02-09T17:55:39.612Z,12.07
2019-02-09T17:58:07.886Z,17.10
2019-02-09T18:00:43.479Z,15.85
2019-02-09T18:03:11.780Z,9.05
2019-02-09T18:05:40.297Z,8.53
2019-02-09T18:08:08.638Z,13.32
2019-02-09T18:10:36.927Z,9.05
2019-02-09T18:13:05.546Z,10.43
2019-02-09T18:15:33.936Z,7.30
2019-02-09T18:18:02.425Z,8.88
2019-02-09T18:20:30.717Z,9.65
2019-02-09T18:22:59.171Z,10.10
2019-02-09T18:25:27.435Z,7.92
2019-02-09T18:27:56.034Z,7.22
2019-02-09T18:30:33.195Z,17.57
2019-02-09T18:33:10.086Z,8.98
2019-02-09T18:35:38.362Z,11.15
2019-02-09T18:38:06.708Z,10.80
2019-02-09T18:40:34.976Z,10.53
2019-02-09T18:43:03.331Z,12.07
2019-02-09T18:45:32.651Z,13.93
2019-02-09T18:48:00.982Z,11.33
2019-02-09T18:50:30.347Z,10.45
2019-02-09T18:53:00.086Z,13.48
2019-02-09T18:55:29.126Z,12.75
2019-02-09T18:57:57.361Z,14.00
2019-02-09T19:00:34.494Z,13.03
2019-02-09T19:03:02.844Z,10.93
2019-02-09T19:05:31.066Z,12.50
2019-02-09T19:07:59.402Z,12.13
2019-02-09T19:10:28.383Z,16.90
2019-02-09T19:12:56.651Z,17.07
2019-02-09T19:15:26.605Z,19.62
2019-02-09T19:17:55.510Z,12.35
2019-02-09T19:20:32.406Z,15.68
2019-02-09T19:23:00.914Z,14.63
2019-02-09T19:25:29.224Z,19.23
2019-02-09T19:27:57.482Z,15.23
2019-02-09T19:30:26.634Z,12.58
2019-02-09T19:32:55.108Z,19.25
2019-02-09T19:35:23.362Z,20.72
2019-02-09T19:37:51.643Z,13.85
2019-02-09T19:40:27.177Z,19.60
2019-02-09T19:42:55.687Z,16.40
2019-02-09T19:45:29.655Z,24.47
2019-02-09T19:47:58.132Z,17.57
2019-02-09T19:50:26.408Z,21.10
2019-02-09T19:52:57.216Z,14.45
2019-02-09T19:55:27.562Z,15.03
2019-02-09T19:57:56.158Z,19.27
2019-02-09T20:00:33.104Z,18.75
2019-02-09T20:03:01.435Z,18.92
2019-02-09T20:05:29.729Z,19.15
2019-02-09T20:07:58.004Z,17.25
2019-02-09T20:10:34.939Z,17.52
2019-02-09T20:13:03.226Z,19.57
2019-02-09T20:15:31.571Z,23.30
2019-02-09T20:17:59.856Z,13.20
2019-02-09T20:20:28.124Z,20.72
2019-02-09T20:22:56.611Z,20.15
2019-02-09T20:25:31.615Z,16.62
2019-02-09T20:27:59.871Z,15.78
2019-02-09T20:30:38.063Z,14.25
2019-02-09T20:33:06.299Z,24.40
2019-02-09T20:35:34.707Z,18.60
2019-02-09T20:38:02.951Z,18.85
2019-02-09T20:40:45.674Z,17.62
2019-02-09T20:43:19.338Z,19.87
2019-02-09T20:45:47.639Z,16.85
2019-02-09T20:48:16.002Z,19.67
2019-02-09T20:50:44.256Z,17.77
2019-02-09T20:53:12.605Z,16.17
2019-02-09T20:55:40.839Z,20.85
2019-02-09T20:58:10.427Z,14.85
2019-02-09T21:00:38.705Z,24.65
2019-02-09T21:03:07.280Z,17.35
2019-02-09T21:05:36.843Z,18.82
2019-02-09T21:08:06.196Z,17.20
2019-02-09T21:10:54.032Z,24.23
2019-02-09T21:13:22.292Z,21.62
2019-02-09T21:15:50.537Z,20.05
2019-02-09T21:18:18.819Z,18.50
2019-02-09T21:20:47.089Z,16.82
2019-02-09T21:23:15.327Z,19.15
2019-02-09T21:25:45.792Z,19.12
2019-02-09T21:28:14.047Z,16.32
2019-02-09T21:30:42.296Z,17.57
2019-02-09T21:33:10.557Z,21.27
2019-02-09T21:35:43.814Z,20.00
2019-02-09T21:38:08.769Z,20.82
2019-02-09T21:40:37.041Z,13.28
2019-02-09T21:43:05.393Z,22.67
2019-02-09T21:45:33.640Z,14.85
2019-02-09T21:48:01.883Z,23.65
2019-02-09T21:50:38.121Z,18.12
2019-02-09T21:53:07.515Z,18.57
2019-02-09T21:55:35.861Z,21.45
2019-02-09T21:58:04.903Z,18.82
2019-02-09T22:00:39.028Z,18.98
2019-02-09T22:03:08.754Z,18.98
2019-02-09T22:05:37.034Z,17.32
2019-02-09T22:08:06.734Z,15.83
2019-02-09T22:10:37.961Z,20.15
2019-02-09T22:13:06.204Z,17.85
2019-02-09T22:15:38.689Z,17.07
2019-02-09T22:18:05.267Z,18.10
2019-02-09T22:20:33.580Z,19.57
2019-02-09T22:23:01.842Z,18.02
2019-02-09T22:25:49.522Z,16.52
2019-02-09T22:28:20.222Z,16.27
2019-02-09T22:30:48.515Z,20.08
2019-02-09T22:33:24.199Z,18.65
2019-02-09T22:35:46.860Z,20.17
2019-02-09T22:38:15.170Z,17.12
2019-02-09T22:40:43.501Z,20.20
2019-02-09T22:43:12.877Z,21.05
2019-02-09T22:45:41.126Z,26.73
2019-02-09T22:48:09.744Z,16.02
2019-02-09T22:50:40.806Z,20.35
2019-02-09T22:53:09.064Z,18.57
2019-02-09T22:55:37.358Z,20.57
2019-02-09T22:58:05.735Z,18.00
2019-02-09T23:00:52.176Z,16.48
2019-02-09T23:03:26.442Z,18.25
2019-02-09T23:06:22.114Z,18.20
2019-02-09T23:08:56.744Z,23.15
2019-02-09T23:11:25.141Z,22.90
2019-02-09T23:13:53.384Z,16.05
2019-02-09T23:16:21.665Z,28.83
2019-02-09T23:18:49.952Z,19.60
2019-02-09T23:21:18.230Z,24.55
2019-02-09T23:23:46.469Z,20.20
2019-02-09T23:26:14.715Z,21.35
2019-02-09T23:28:42.994Z,19.42
2019-02-09T23:31:11.261Z,19.75
2019-02-09T23:33:39.558Z,20.40
2019-02-09T23:36:07.831Z,19.52
2019-02-09T23:38:36.143Z,19.32
2019-02-09T23:41:04.411Z,20.55
2019-02-09T23:43:32.667Z,19.57
2019-02-09T23:46:00.908Z,20.02
2019-02-09T23:48:29.181Z,22.45
2019-02-09T23:50:57.402Z,15.70
2019-02-09T23:53:25.611Z,16.25
2019-02-09T23:55:53.873Z,18.30
2019-02-09T23:58:22.185Z,17.87
